sensor_id;sensor_type;location;lat;lon;timestamp;P1;durP1;ratioP1;P2;durP2;ratioP2
46429;SDS011;32131;53.454;-6.180;2022-09-21T00:01:20;2.83;;;1.52;;
46429;SDS011;32131;53.454;-6.180;2022-09-21T00:03:51;2.80;;;1.88;;
46429;SDS011;32131;53.454;-6.180;2022-09-21T00:06:22;2.63;;;1.63;;
46429;SDS011;32131;53.454;-6.180;2022-09-21T00:08:52;4.30;;;1.52;;
46429;SDS011;32131;53.454;-6.180;2022-09-21T00:11:22;3.87;;;1.80;;
46429;SDS011;32131;53.454;-6.180;2022-09-21T00:13:52;3.08;;;1.67;;
46429;SDS011;32131;53.454;-6.180;2022-09-21T00:16:23;5.85;;;2.10;;
46429;SDS011;32131;53.454;-6.180;2022-09-21T00:18:51;3.40;;;1.58;;
46429;SDS011;32131;53.454;-6.180;2022-09-21T00:21:19;3.10;;;1.42;;
46429;SDS011;32131;53.454;-6.180;2022-09-21T00:23:48;5.03;;;1.83;;
46429;SDS011;32131;53.454;-6.180;2022-09-21T00:26:17;2.63;;;1.70;;
46429;SDS011;32131;53.454;-6.180;2022-09-21T00:28:50;3.75;;;1.80;;
46429;SDS011;32131;53.454;-6.180;2022-09-21T00:31:20;5.03;;;1.70;;
46429;SDS011;32131;53.454;-6.180;2022-09-21T00:33:51;2.42;;;1.73;;
46429;SDS011;32131;53.454;-6.180;2022-09-21T00:36:20;2.40;;;1.77;;
46429;SDS011;32131;53.454;-6.180;2022-09-21T00:38:50;3.25;;;2.40;;
46429;SDS011;32131;53.454;-6.180;2022-09-21T00:41:20;3.08;;;2.00;;
46429;SDS011;32131;53.454;-6.180;2022-09-21T00:43:49;4.97;;;2.10;;
46429;SDS011;32131;53.454;-6.180;2022-09-21T00:46:46;3.13;;;1.95;;
46429;SDS011;32131;53.454;-6.180;2022-09-21T00:49:18;3.95;;;2.00;;
46429;SDS011;32131;53.454;-6.180;2022-09-21T00:51:48;3.78;;;1.77;;
46429;SDS011;32131;53.454;-6.180;2022-09-21T00:54:19;2.58;;;1.60;;
46429;SDS011;32131;53.454;-6.180;2022-09-21T00:56:52;6.32;;;2.20;;
46429;SDS011;32131;53.454;-6.180;2022-09-21T00:59:22;2.50;;;1.67;;
46429;SDS011;32131;53.454;-6.180;2022-09-21T01:01:55;5.13;;;2.03;;
46429;SDS011;32131;53.454;-6.180;2022-09-21T01:04:27;2.70;;;1.65;;
46429;SDS011;32131;53.454;-6.180;2022-09-21T01:06:56;2.22;;;1.42;;
46429;SDS011;32131;53.454;-6.180;2022-09-21T01:09:29;2.30;;;1.27;;
46429;SDS011;32131;53.454;-6.180;2022-09-21T01:12:02;2.53;;;1.42;;
46429;SDS011;32131;53.454;-6.180;2022-09-21T01:14:44;2.70;;;1.58;;
46429;SDS011;32131;53.454;-6.180;2022-09-21T01:17:25;3.42;;;1.63;;
46429;SDS011;32131;53.454;-6.180;2022-09-21T01:20:14;2.47;;;1.35;;
46429;SDS011;32131;53.454;-6.180;2022-09-21T01:23:14;2.05;;;1.23;;
46429;SDS011;32131;53.454;-6.180;2022-09-21T01:25:58;4.00;;;1.80;;
46429;SDS011;32131;53.454;-6.180;2022-09-21T01:31:43;7.32;;;2.20;;
46429;SDS011;32131;53.454;-6.180;2022-09-21T01:34:21;2.65;;;1.40;;
46429;SDS011;32131;53.454;-6.180;2022-09-21T01:36:56;5.53;;;1.60;;
46429;SDS011;32131;53.454;-6.180;2022-09-21T01:39:28;3.05;;;1.70;;
46429;SDS011;32131;53.454;-6.180;2022-09-21T01:42:00;4.20;;;1.60;;
46429;SDS011;32131;53.454;-6.180;2022-09-21T01:44:32;3.25;;;1.40;;
46429;SDS011;32131;53.454;-6.180;2022-09-21T01:47:06;2.58;;;1.20;;
46429;SDS011;32131;53.454;-6.180;2022-09-21T01:49:38;2.33;;;1.50;;
46429;SDS011;32131;53.454;-6.180;2022-09-21T01:52:12;2.67;;;1.52;;
46429;SDS011;32131;53.454;-6.180;2022-09-21T01:54:44;3.55;;;1.58;;
46429;SDS011;32131;53.454;-6.180;2022-09-21T01:57:18;3.50;;;1.70;;
46429;SDS011;32131;53.454;-6.180;2022-09-21T01:59:53;3.90;;;1.50;;
46429;SDS011;32131;53.454;-6.180;2022-09-21T02:02:27;6.22;;;1.77;;
46429;SDS011;32131;53.454;-6.180;2022-09-21T02:05:02;2.67;;;1.45;;
46429;SDS011;32131;53.454;-6.180;2022-09-21T02:07:33;4.35;;;1.77;;
46429;SDS011;32131;53.454;-6.180;2022-09-21T02:10:02;5.07;;;1.85;;
46429;SDS011;32131;53.454;-6.180;2022-09-21T02:12:34;2.97;;;1.60;;
46429;SDS011;32131;53.454;-6.180;2022-09-21T02:15:03;2.20;;;1.30;;
46429;SDS011;32131;53.454;-6.180;2022-09-21T02:17:35;3.58;;;1.77;;
46429;SDS011;32131;53.454;-6.180;2022-09-21T02:20:15;3.03;;;1.58;;
46429;SDS011;32131;53.454;-6.180;2022-09-21T02:22:50;2.75;;;1.60;;
46429;SDS011;32131;53.454;-6.180;2022-09-21T02:25:29;6.57;;;2.03;;
46429;SDS011;32131;53.454;-6.180;2022-09-21T02:28:07;3.05;;;1.67;;
46429;SDS011;32131;53.454;-6.180;2022-09-21T02:30:41;4.72;;;1.73;;
46429;SDS011;32131;53.454;-6.180;2022-09-21T02:33:23;4.43;;;2.08;;
46429;SDS011;32131;53.454;-6.180;2022-09-21T02:35:57;4.72;;;1.77;;
46429;SDS011;32131;53.454;-6.180;2022-09-21T02:38:32;4.78;;;1.90;;
46429;SDS011;32131;53.454;-6.180;2022-09-21T02:41:05;3.08;;;1.77;;
46429;SDS011;32131;53.454;-6.180;2022-09-21T02:43:42;2.85;;;2.00;;
46429;SDS011;32131;53.454;-6.180;2022-09-21T02:46:17;4.63;;;2.42;;
46429;SDS011;32131;53.454;-6.180;2022-09-21T02:48:56;3.47;;;2.13;;
46429;SDS011;32131;53.454;-6.180;2022-09-21T02:51:29;4.35;;;2.13;;
46429;SDS011;32131;53.454;-6.180;2022-09-21T02:54:02;3.72;;;1.92;;
46429;SDS011;32131;53.454;-6.180;2022-09-21T02:56:33;3.13;;;1.88;;
46429;SDS011;32131;53.454;-6.180;2022-09-21T02:59:02;2.85;;;1.80;;
46429;SDS011;32131;53.454;-6.180;2022-09-21T03:01:32;6.28;;;2.00;;
46429;SDS011;32131;53.454;-6.180;2022-09-21T03:04:03;5.25;;;2.13;;
46429;SDS011;32131;53.454;-6.180;2022-09-21T03:06:31;4.50;;;2.08;;
46429;SDS011;32131;53.454;-6.180;2022-09-21T03:09:00;2.83;;;1.90;;
46429;SDS011;32131;53.454;-6.180;2022-09-21T03:11:28;5.65;;;2.30;;
46429;SDS011;32131;53.454;-6.180;2022-09-21T03:13:56;4.65;;;1.98;;
46429;SDS011;32131;53.454;-6.180;2022-09-21T03:16:25;4.03;;;1.90;;
46429;SDS011;32131;53.454;-6.180;2022-09-21T03:18:54;5.43;;;2.35;;
46429;SDS011;32131;53.454;-6.180;2022-09-21T03:21:24;6.15;;;2.10;;
46429;SDS011;32131;53.454;-6.180;2022-09-21T03:23:52;4.97;;;1.83;;
46429;SDS011;32131;53.454;-6.180;2022-09-21T03:26:20;4.55;;;1.98;;
46429;SDS011;32131;53.454;-6.180;2022-09-21T03:28:48;3.28;;;1.88;;
46429;SDS011;32131;53.454;-6.180;2022-09-21T03:31:18;3.22;;;2.05;;
46429;SDS011;32131;53.454;-6.180;2022-09-21T03:33:47;6.70;;;1.98;;
46429;SDS011;32131;53.454;-6.180;2022-09-21T03:36:15;3.75;;;1.77;;
46429;SDS011;32131;53.454;-6.180;2022-09-21T03:38:45;3.38;;;2.20;;
46429;SDS011;32131;53.454;-6.180;2022-09-21T03:41:13;4.57;;;2.25;;
46429;SDS011;32131;53.454;-6.180;2022-09-21T03:43:41;5.18;;;2.30;;
46429;SDS011;32131;53.454;-6.180;2022-09-21T03:46:09;4.50;;;1.85;;
46429;SDS011;32131;53.454;-6.180;2022-09-21T03:48:37;3.83;;;2.38;;
46429;SDS011;32131;53.454;-6.180;2022-09-21T03:51:07;6.65;;;2.15;;
46429;SDS011;32131;53.454;-6.180;2022-09-21T03:53:36;3.30;;;1.95;;
46429;SDS011;32131;53.454;-6.180;2022-09-21T03:56:05;4.53;;;2.10;;
46429;SDS011;32131;53.454;-6.180;2022-09-21T03:58:33;3.55;;;2.10;;
46429;SDS011;32131;53.454;-6.180;2022-09-21T04:01:02;3.53;;;1.83;;
46429;SDS011;32131;53.454;-6.180;2022-09-21T04:03:30;3.65;;;2.13;;
46429;SDS011;32131;53.454;-6.180;2022-09-21T04:05:59;2.95;;;1.77;;
46429;SDS011;32131;53.454;-6.180;2022-09-21T04:08:29;3.33;;;2.05;;
46429;SDS011;32131;53.454;-6.180;2022-09-21T04:10:58;3.15;;;2.08;;
46429;SDS011;32131;53.454;-6.180;2022-09-21T04:13:27;2.50;;;1.60;;
46429;SDS011;32131;53.454;-6.180;2022-09-21T04:15:55;3.75;;;2.05;;
46429;SDS011;32131;53.454;-6.180;2022-09-21T04:18:24;3.75;;;1.95;;
46429;SDS011;32131;53.454;-6.180;2022-09-21T04:20:52;2.55;;;1.77;;
46429;SDS011;32131;53.454;-6.180;2022-09-21T04:23:20;3.60;;;2.05;;
46429;SDS011;32131;53.454;-6.180;2022-09-21T04:25:48;2.88;;;1.92;;
46429;SDS011;32131;53.454;-6.180;2022-09-21T04:28:18;7.47;;;2.22;;
46429;SDS011;32131;53.454;-6.180;2022-09-21T04:30:51;5.22;;;2.05;;
46429;SDS011;32131;53.454;-6.180;2022-09-21T04:33:19;3.60;;;2.25;;
46429;SDS011;32131;53.454;-6.180;2022-09-21T04:35:47;3.35;;;1.90;;
46429;SDS011;32131;53.454;-6.180;2022-09-21T04:38:22;3.15;;;1.92;;
46429;SDS011;32131;53.454;-6.180;2022-09-21T04:40:54;3.83;;;2.13;;
46429;SDS011;32131;53.454;-6.180;2022-09-21T04:43:22;4.85;;;1.88;;
46429;SDS011;32131;53.454;-6.180;2022-09-21T04:45:52;3.67;;;2.33;;
46429;SDS011;32131;53.454;-6.180;2022-09-21T04:48:20;3.42;;;2.30;;
46429;SDS011;32131;53.454;-6.180;2022-09-21T04:50:53;4.70;;;2.28;;
46429;SDS011;32131;53.454;-6.180;2022-09-21T04:53:21;5.88;;;2.63;;
46429;SDS011;32131;53.454;-6.180;2022-09-21T04:55:49;5.00;;;2.47;;
46429;SDS011;32131;53.454;-6.180;2022-09-21T04:58:17;5.28;;;3.08;;
46429;SDS011;32131;53.454;-6.180;2022-09-21T05:00:49;5.40;;;2.65;;
46429;SDS011;32131;53.454;-6.180;2022-09-21T05:03:20;10.30;;;3.57;;
46429;SDS011;32131;53.454;-6.180;2022-09-21T05:05:51;7.88;;;3.53;;
46429;SDS011;32131;53.454;-6.180;2022-09-21T05:08:21;6.13;;;3.67;;
46429;SDS011;32131;53.454;-6.180;2022-09-21T05:11:12;7.85;;;3.80;;
46429;SDS011;32131;53.454;-6.180;2022-09-21T06:43:40;4.53;;;2.72;;
46429;SDS011;32131;53.454;-6.180;2022-09-21T06:47:37;6.53;;;2.92;;
46429;SDS011;32131;53.454;-6.180;2022-09-21T06:54:17;3.42;;;2.28;;
46429;SDS011;32131;53.454;-6.180;2022-09-21T19:00:44;7.30;;;2.40;;
46429;SDS011;32131;53.454;-6.180;2022-09-21T19:03:13;6.55;;;2.45;;
46429;SDS011;32131;53.454;-6.180;2022-09-21T19:05:46;4.88;;;2.33;;
46429;SDS011;32131;53.454;-6.180;2022-09-21T19:08:28;6.28;;;2.58;;
46429;SDS011;32131;53.454;-6.180;2022-09-21T19:11:06;6.50;;;2.15;;
46429;SDS011;32131;53.454;-6.180;2022-09-21T19:13:44;5.30;;;2.00;;
46429;SDS011;32131;53.454;-6.180;2022-09-21T19:16:22;4.38;;;2.03;;
46429;SDS011;32131;53.454;-6.180;2022-09-21T19:19:00;3.67;;;2.17;;
46429;SDS011;32131;53.454;-6.180;2022-09-21T19:21:40;7.85;;;2.30;;
46429;SDS011;32131;53.454;-6.180;2022-09-21T19:24:15;6.75;;;1.73;;
46429;SDS011;32131;53.454;-6.180;2022-09-21T19:26:51;2.47;;;1.52;;
46429;SDS011;32131;53.454;-6.180;2022-09-21T19:29:32;4.25;;;2.03;;
46429;SDS011;32131;53.454;-6.180;2022-09-21T19:32:14;5.65;;;1.77;;
46429;SDS011;32131;53.454;-6.180;2022-09-21T19:34:44;2.58;;;1.48;;
46429;SDS011;32131;53.454;-6.180;2022-09-21T19:37:13;8.50;;;1.60;;
46429;SDS011;32131;53.454;-6.180;2022-09-21T19:39:41;6.60;;;1.63;;
46429;SDS011;32131;53.454;-6.180;2022-09-21T19:42:15;6.28;;;1.98;;
46429;SDS011;32131;53.454;-6.180;2022-09-21T19:45:04;3.90;;;2.20;;
46429;SDS011;32131;53.454;-6.180;2022-09-21T19:47:45;5.78;;;1.50;;
46429;SDS011;32131;53.454;-6.180;2022-09-21T19:50:21;4.63;;;1.40;;
46429;SDS011;32131;53.454;-6.180;2022-09-21T19:52:53;3.17;;;1.30;;
46429;SDS011;32131;53.454;-6.180;2022-09-21T19:55:42;7.25;;;1.65;;
46429;SDS011;32131;53.454;-6.180;2022-09-21T19:58:28;5.68;;;1.90;;
46429;SDS011;32131;53.454;-6.180;2022-09-21T20:01:14;3.83;;;1.80;;
46429;SDS011;32131;53.454;-6.180;2022-09-21T20:03:48;4.63;;;1.55;;
46429;SDS011;32131;53.454;-6.180;2022-09-21T20:06:18;5.30;;;1.40;;
46429;SDS011;32131;53.454;-6.180;2022-09-21T20:08:51;4.22;;;1.77;;
46429;SDS011;32131;53.454;-6.180;2022-09-21T20:11:28;6.50;;;1.83;;
46429;SDS011;32131;53.454;-6.180;2022-09-21T20:14:08;5.35;;;1.70;;
46429;SDS011;32131;53.454;-6.180;2022-09-21T20:16:45;3.63;;;1.67;;
46429;SDS011;32131;53.454;-6.180;2022-09-21T20:19:35;4.65;;;2.08;;
46429;SDS011;32131;53.454;-6.180;2022-09-21T20:22:10;4.72;;;1.27;;
46429;SDS011;32131;53.454;-6.180;2022-09-21T20:24:43;3.05;;;1.63;;
46429;SDS011;32131;53.454;-6.180;2022-09-21T20:27:21;2.38;;;1.38;;
46429;SDS011;32131;53.454;-6.180;2022-09-21T20:30:00;5.00;;;1.60;;
46429;SDS011;32131;53.454;-6.180;2022-09-21T20:32:28;4.13;;;1.25;;
46429;SDS011;32131;53.454;-6.180;2022-09-21T20:34:58;4.07;;;1.40;;
46429;SDS011;32131;53.454;-6.180;2022-09-21T20:37:26;5.90;;;1.63;;
46429;SDS011;32131;53.454;-6.180;2022-09-21T20:39:55;2.92;;;1.55;;
46429;SDS011;32131;53.454;-6.180;2022-09-21T20:42:24;5.72;;;1.55;;
46429;SDS011;32131;53.454;-6.180;2022-09-21T20:44:52;4.35;;;1.35;;
46429;SDS011;32131;53.454;-6.180;2022-09-21T20:47:20;6.95;;;2.20;;
46429;SDS011;32131;53.454;-6.180;2022-09-21T20:49:49;13.02;;;2.92;;
46429;SDS011;32131;53.454;-6.180;2022-09-21T20:52:19;9.85;;;4.15;;
46429;SDS011;32131;53.454;-6.180;2022-09-21T20:54:47;8.05;;;3.28;;
46429;SDS011;32131;53.454;-6.180;2022-09-21T20:57:15;8.82;;;2.67;;
46429;SDS011;32131;53.454;-6.180;2022-09-21T20:59:44;15.32;;;3.35;;
46429;SDS011;32131;53.454;-6.180;2022-09-21T21:02:13;6.88;;;1.90;;
46429;SDS011;32131;53.454;-6.180;2022-09-21T21:04:42;4.87;;;1.77;;
46429;SDS011;32131;53.454;-6.180;2022-09-21T21:07:10;4.85;;;1.70;;
46429;SDS011;32131;53.454;-6.180;2022-09-21T21:09:39;3.45;;;1.52;;
46429;SDS011;32131;53.454;-6.180;2022-09-21T21:12:07;2.90;;;1.42;;
46429;SDS011;32131;53.454;-6.180;2022-09-21T21:14:35;4.28;;;1.80;;
46429;SDS011;32131;53.454;-6.180;2022-09-21T21:17:04;7.72;;;1.48;;
46429;SDS011;32131;53.454;-6.180;2022-09-21T21:19:33;4.53;;;1.63;;
46429;SDS011;32131;53.454;-6.180;2022-09-21T21:22:04;3.88;;;1.45;;
46429;SDS011;32131;53.454;-6.180;2022-09-21T21:24:32;4.10;;;1.65;;
46429;SDS011;32131;53.454;-6.180;2022-09-21T21:27:09;10.88;;;1.80;;
46429;SDS011;32131;53.454;-6.180;2022-09-21T21:29:40;4.03;;;1.92;;
46429;SDS011;32131;53.454;-6.180;2022-09-21T21:32:08;5.38;;;1.60;;
46429;SDS011;32131;53.454;-6.180;2022-09-21T21:34:36;3.90;;;1.80;;
46429;SDS011;32131;53.454;-6.180;2022-09-21T21:37:05;3.28;;;1.30;;
46429;SDS011;32131;53.454;-6.180;2022-09-21T21:39:34;9.02;;;1.70;;
46429;SDS011;32131;53.454;-6.180;2022-09-21T21:42:02;5.28;;;1.65;;
46429;SDS011;32131;53.454;-6.180;2022-09-21T21:44:32;5.15;;;1.67;;
46429;SDS011;32131;53.454;-6.180;2022-09-21T21:47:01;3.85;;;1.52;;
46429;SDS011;32131;53.454;-6.180;2022-09-21T21:49:49;3.05;;;1.33;;
46429;SDS011;32131;53.454;-6.180;2022-09-21T21:52:17;3.88;;;1.58;;
46429;SDS011;32131;53.454;-6.180;2022-09-21T21:54:45;7.53;;;2.05;;
46429;SDS011;32131;53.454;-6.180;2022-09-21T21:57:13;6.50;;;1.65;;
46429;SDS011;32131;53.454;-6.180;2022-09-21T21:59:43;2.67;;;1.50;;
46429;SDS011;32131;53.454;-6.180;2022-09-21T22:02:11;7.18;;;1.35;;
46429;SDS011;32131;53.454;-6.180;2022-09-21T22:04:40;4.63;;;1.37;;
46429;SDS011;32131;53.454;-6.180;2022-09-21T22:07:09;5.03;;;1.60;;
46429;SDS011;32131;53.454;-6.180;2022-09-21T22:09:37;6.88;;;1.42;;
46429;SDS011;32131;53.454;-6.180;2022-09-21T22:12:05;5.53;;;2.00;;
46429;SDS011;32131;53.454;-6.180;2022-09-21T22:14:35;4.55;;;1.40;;
46429;SDS011;32131;53.454;-6.180;2022-09-21T22:17:04;8.60;;;1.65;;
46429;SDS011;32131;53.454;-6.180;2022-09-21T22:19:32;3.97;;;1.77;;
46429;SDS011;32131;53.454;-6.180;2022-09-21T22:22:00;3.10;;;1.63;;
46429;SDS011;32131;53.454;-6.180;2022-09-21T22:24:29;12.35;;;1.80;;
46429;SDS011;32131;53.454;-6.180;2022-09-21T22:26:57;2.13;;;1.20;;
46429;SDS011;32131;53.454;-6.180;2022-09-21T22:29:25;5.32;;;1.90;;
46429;SDS011;32131;53.454;-6.180;2022-09-21T22:31:53;8.02;;;1.52;;
46429;SDS011;32131;53.454;-6.180;2022-09-21T22:34:23;3.60;;;1.55;;
46429;SDS011;32131;53.454;-6.180;2022-09-21T22:36:52;5.05;;;1.80;;
46429;SDS011;32131;53.454;-6.180;2022-09-21T22:39:21;3.22;;;1.35;;
46429;SDS011;32131;53.454;-6.180;2022-09-21T22:41:49;3.88;;;1.60;;
46429;SDS011;32131;53.454;-6.180;2022-09-21T22:44:19;3.35;;;1.70;;
46429;SDS011;32131;53.454;-6.180;2022-09-21T22:46:47;4.13;;;2.03;;
46429;SDS011;32131;53.454;-6.180;2022-09-21T22:49:15;4.80;;;1.85;;
46429;SDS011;32131;53.454;-6.180;2022-09-21T22:51:45;12.35;;;1.95;;
46429;SDS011;32131;53.454;-6.180;2022-09-21T22:54:13;6.03;;;1.65;;
46429;SDS011;32131;53.454;-6.180;2022-09-21T22:56:43;5.78;;;2.13;;
46429;SDS011;32131;53.454;-6.180;2022-09-21T22:59:11;17.67;;;1.80;;
46429;SDS011;32131;53.454;-6.180;2022-09-21T23:01:39;4.13;;;1.27;;
46429;SDS011;32131;53.454;-6.180;2022-09-21T23:04:07;11.73;;;1.88;;
46429;SDS011;32131;53.454;-6.180;2022-09-21T23:09:10;6.70;;;1.60;;
46429;SDS011;32131;53.454;-6.180;2022-09-21T23:11:41;4.03;;;1.45;;
46429;SDS011;32131;53.454;-6.180;2022-09-21T23:14:13;5.85;;;1.30;;
46429;SDS011;32131;53.454;-6.180;2022-09-21T23:16:42;4.68;;;1.15;;
46429;SDS011;32131;53.454;-6.180;2022-09-21T23:19:10;3.53;;;1.35;;
46429;SDS011;32131;53.454;-6.180;2022-09-21T23:21:42;2.40;;;1.30;;
46429;SDS011;32131;53.454;-6.180;2022-09-21T23:24:13;3.88;;;1.38;;
46429;SDS011;32131;53.454;-6.180;2022-09-21T23:26:41;7.63;;;1.40;;
46429;SDS011;32131;53.454;-6.180;2022-09-21T23:29:10;6.13;;;1.50;;
46429;SDS011;32131;53.454;-6.180;2022-09-21T23:31:40;3.30;;;0.98;;
46429;SDS011;32131;53.454;-6.180;2022-09-21T23:34:11;8.68;;;1.40;;
46429;SDS011;32131;53.454;-6.180;2022-09-21T23:36:40;4.95;;;1.30;;
46429;SDS011;32131;53.454;-6.180;2022-09-21T23:39:10;7.97;;;1.35;;
46429;SDS011;32131;53.454;-6.180;2022-09-21T23:41:40;2.95;;;1.48;;
46429;SDS011;32131;53.454;-6.180;2022-09-21T23:44:09;3.72;;;1.33;;
46429;SDS011;32131;53.454;-6.180;2022-09-21T23:46:39;4.00;;;1.20;;
46429;SDS011;32131;53.454;-6.180;2022-09-21T23:49:07;9.02;;;1.52;;
46429;SDS011;32131;53.454;-6.180;2022-09-21T23:51:36;5.57;;;1.25;;
46429;SDS011;32131;53.454;-6.180;2022-09-21T23:54:04;3.25;;;1.15;;
46429;SDS011;32131;53.454;-6.180;2022-09-21T23:56:32;7.40;;;1.52;;
46429;SDS011;32131;53.454;-6.180;2022-09-21T23:59:02;6.05;;;1.10;;
